Time;durP1;ratioP1;P1;durP2;ratioP2;P2;SDS_P1;SDS_P2;PMS_P1;PMS_P2;Temp;Humidity;BMP_temperature;BMP_pressure;BME280_temperature;BME280_humidity;BME280_pressure;Samples;Min_cycle;Max_cycle;Signal;HPM_P1;HPM_P2
2024/03/15 00:00:43;;;;;;;76.35;37.28;;;;;;;2.41;94.98;100409.04;1731768;82;25327;-78
2024/03/15 00:03:11;;;;;;;77.25;37.10;;;;;;;2.41;95.06;100406.91;1733034;82;26001;-78
2024/03/15 00:05:45;;;;;;;78.22;38.48;;;;;;;2.38;94.83;100396.73;1733192;82;25207;-77
2024/03/15 00:08:26;;;;;;;77.72;37.90;;;;;;;2.37;94.55;100401.27;1732402;82;25520;-78
2024/03/15 00:11:10;;;;;;;72.87;36.17;;;;;;;2.36;95.11;100400.98;1708624;83;25821;-77
2024/03/15 00:13:49;;;;;;;78.17;38.20;;;;;;;2.35;95.29;100403.39;1617795;88;25725;-77
2024/03/15 00:16:19;;;;;;;75.35;36.23;;;;;;;2.34;95.78;100399.09;1618439;88;27404;-76
2024/03/15 00:18:45;;;;;;;80.85;36.60;;;;;;;2.36;95.74;100402.85;1617878;88;25850;-78
2024/03/15 00:21:19;;;;;;;77.72;38.08;;;;;;;2.36;96.62;100396.18;1618770;88;25283;-77
2024/03/15 00:23:51;;;;;;;77.42;37.60;;;;;;;2.35;95.88;100396.72;1551838;91;25576;-74
2024/03/15 00:26:17;;;;;;;76.57;36.75;;;;;;;2.35;96.05;100394.55;1552343;92;25579;-76
2024/03/15 00:28:45;;;;;;;72.30;35.55;;;;;;;2.35;95.62;100389.22;1552466;92;26657;-76
2024/03/15 00:31:29;;;;;;;77.32;36.35;;;;;;;2.33;95.62;100387.33;1552322;92;25711;-77
2024/03/15 00:33:55;;;;;;;81.00;37.75;;;;;;;2.31;95.57;100385.45;1549942;92;25670;-77
2024/03/15 00:36:31;;;;;;;78.10;38.42;;;;;;;2.30;95.80;100382.49;1550849;92;25614;-75
2024/03/15 00:38:58;;;;;;;84.32;37.98;;;;;;;2.28;95.51;100380.61;1549598;91;25739;-75
2024/03/15 00:41:25;;;;;;;83.60;36.90;;;;;;;2.27;95.80;100385.15;1553579;92;27397;-74
2024/03/15 00:43:53;;;;;;;78.45;37.30;;;;;;;2.25;95.50;100385.94;1553654;92;25327;-77
2024/03/15 00:46:20;;;;;;;81.45;36.85;;;;;;;2.23;95.62;100375.50;1553044;92;25714;-77
2024/03/15 00:49:13;;;;;;;76.87;37.38;;;;;;;2.22;95.36;100375.22;1556021;91;26306;-77
2024/03/15 00:51:41;;;;;;;77.87;35.90;;;;;;;2.19;95.07;100370.91;1615529;86;25300;-75
2024/03/15 00:54:09;;;;;;;78.17;35.95;;;;;;;2.17;95.70;100371.16;1594695;86;27516;-76
2024/03/15 00:56:36;;;;;;;76.77;37.85;;;;;;;2.14;96.06;100376.99;1585185;90;25874;-77
2024/03/15 00:59:02;;;;;;;79.22;35.33;;;;;;;2.13;95.87;100374.06;1632984;86;25444;-75
2024/03/15 01:01:42;;;;;;;81.12;38.20;;;;;;;2.11;95.73;100382.03;1623630;87;25612;-77
2024/03/15 01:04:09;;;;;;;75.90;35.25;;;;;;;2.11;95.77;100377.52;1616823;88;25506;-77
2024/03/15 01:06:55;;;;;;;79.35;36.83;;;;;;;2.09;95.72;100372.94;1576495;90;25675;-78
2024/03/15 01:09:21;;;;;;;77.27;37.35;;;;;;;2.08;95.54;100369.18;1633011;87;25265;-77
2024/03/15 01:11:47;;;;;;;80.83;36.98;;;;;;;2.06;95.54;100380.13;1654898;86;25228;-77
2024/03/15 01:14:14;;;;;;;76.87;36.83;;;;;;;2.01;95.74;100368.87;1661721;86;25750;-77
2024/03/15 01:16:45;;;;;;;81.32;36.88;;;;;;;2.02;96.07;100375.00;1661899;86;25631;-77
2024/03/15 01:19:10;;;;;;;84.70;39.27;;;;;;;2.01;96.04;100369.37;1662454;86;27535;-77
2024/03/15 01:22:00;;;;;;;80.12;37.75;;;;;;;2.00;96.07;100370.45;1662634;86;25273;-77
2024/03/15 01:24:52;;;;;;;82.65;36.65;;;;;;;1.97;96.19;100370.41;1659569;86;25959;-77
2024/03/15 01:27:24;;;;;;;79.95;37.53;;;;;;;1.94;96.59;100368.77;1657207;86;25749;-77
2024/03/15 01:29:53;;;;;;;85.22;37.48;;;;;;;1.92;96.32;100364.21;1626782;86;25305;-78
2024/03/15 01:32:19;;;;;;;82.40;38.50;;;;;;;1.90;96.32;100367.66;1625154;88;27314;-77
2024/03/15 01:34:49;;;;;;;88.97;36.98;;;;;;;1.88;96.36;100363.11;1624578;88;25518;-78
2024/03/15 01:37:15;;;;;;;85.85;37.70;;;;;;;1.85;96.98;100357.73;1624995;88;25554;-78
2024/03/15 01:39:44;;;;;;;87.53;36.50;;;;;;;1.85;97.27;100363.06;1625440;88;25629;-78
2024/03/15 01:42:09;;;;;;;80.67;36.60;;;;;;;1.83;97.10;100363.31;1625014;88;25685;-78
2024/03/15 01:44:46;;;;;;;84.28;36.42;;;;;;;1.82;97.03;100362.22;1687522;83;27346;-78
2024/03/15 01:47:15;;;;;;;81.75;35.50;;;;;;;1.79;96.87;100351.54;1707749;81;25397;-78
2024/03/15 01:49:41;;;;;;;85.40;36.38;;;;;;;1.79;96.99;100360.08;1710080;81;25450;-78
2024/03/15 01:52:08;;;;;;;82.30;36.23;;;;;;;1.78;97.23;100364.59;1710316;82;25582;-78
2024/03/15 01:54:34;;;;;;;83.55;37.55;;;;;;;1.75;96.96;100354.41;1748550;80;25221;-79
2024/03/15 01:57:01;;;;;;;76.75;36.13;;;;;;;1.74;97.32;100360.81;1748547;80;27365;-77
2024/03/15 01:59:27;;;;;;;89.32;37.20;;;;;;;1.74;97.39;100370.15;1746693;82;25578;-77
2024/03/15 02:02:04;;;;;;;84.40;36.30;;;;;;;1.74;97.98;100367.48;1746710;82;25576;-78
2024/03/15 02:04:31;;;;;;;87.50;37.17;;;;;;;1.74;98.14;100368.81;1747078;82;25740;-79
2024/03/15 02:06:58;;;;;;;90.10;36.03;;;;;;;1.73;97.95;100360.52;1747137;81;25547;-79
2024/03/15 02:09:30;;;;;;;83.52;35.92;;;;;;;1.74;98.17;100366.15;1747292;81;28093;-79
2024/03/15 02:11:54;;;;;;;;;;;;;;;1.74;98.46;100369.32;1749302;81;25643;-77
2024/03/15 02:14:22;;;;;;;81.63;34.63;;;;;;;1.72;98.05;100372.77;1708268;83;25631;-77
2024/03/15 02:16:49;;;;;;;78.45;36.40;;;;;;;1.72;98.39;100372.27;1746563;82;25732;-77
2024/03/15 02:19:15;;;;;;;86.10;37.55;;;;;;;1.72;98.54;100372.77;1746448;82;25727;-77
2024/03/15 02:21:43;;;;;;;81.55;34.67;;;;;;;1.72;98.66;100374.10;1746432;82;27366;-77
2024/03/15 02:24:10;;;;;;;81.45;36.15;;;;;;;1.71;98.60;100373.30;1743301;81;25376;-77
2024/03/15 02:26:39;;;;;;;79.90;36.45;;;;;;;1.71;98.67;100373.84;1741399;82;25480;-77
2024/03/15 02:29:08;;;;;;;79.90;34.83;;;;;;;1.71;98.92;100377.30;1741776;81;25623;-76
2024/03/15 02:31:35;;;;;;;;;;;;;;;1.72;98.56;100380.27;1744058;81;25628;-75
2024/03/15 02:34:03;;;;;;;73.85;31.93;;;;;;;1.71;98.49;100383.17;1703215;83;28080;-77
2024/03/15 02:36:30;;;;;;;78.85;32.58;;;;;;;1.71;98.43;100381.30;1680365;84;25636;-79
2024/03/15 02:38:57;;;;;;;81.25;34.90;;;;;;;1.70;98.41;100377.55;1681197;85;25426;-76
2024/03/15 02:41:23;;;;;;;82.65;36.30;;;;;;;1.72;98.39;100378.10;1678710;85;25632;-76
2024/03/15 02:43:49;;;;;;;78.33;34.75;;;;;;;1.71;98.49;100375.17;1681228;85;25625;-76
2024/03/15 02:46:16;;;;;;;79.20;34.58;;;;;;;1.70;98.73;100375.68;1681219;85;28000;-75
2024/03/15 02:48:43;;;;;;;85.87;35.58;;;;;;;1.70;99.01;100378.88;1681025;85;25542;-74
2024/03/15 02:51:12;;;;;;;79.55;35.68;;;;;;;1.70;98.88;100377.55;1678667;85;25462;-75
2024/03/15 02:53:39;;;;;;;81.35;34.90;;;;;;;1.68;98.90;100382.59;1735803;82;25611;-75
2024/03/15 02:56:05;;;;;;;73.12;33.05;;;;;;;1.68;99.07;100381.26;1741139;81;25574;-76
2024/03/15 02:58:32;;;;;;;81.40;33.67;;;;;;;1.67;98.75;100380.20;1741289;82;27344;-77
2024/03/15 03:00:58;;;;;;;81.95;35.35;;;;;;;1.66;98.66;100378.04;1741335;81;25614;-76
2024/03/15 03:03:24;;;;;;;79.87;35.05;;;;;;;1.67;98.41;100378.87;1741356;81;25448;-76
2024/03/15 03:05:51;;;;;;;79.75;34.00;;;;;;;1.64;98.39;100378.02;1741488;81;25648;-76
2024/03/15 03:08:17;;;;;;;80.05;35.55;;;;;;;1.65;98.52;100378.28;1741379;81;25597;-76
2024/03/15 03:10:43;;;;;;;75.90;34.60;;;;;;;1.63;98.40;100377.73;1741572;81;28008;-76
2024/03/15 03:13:10;;;;;;;80.60;36.60;;;;;;;1.62;98.75;100369.47;1741257;82;25577;-76
2024/03/15 03:15:36;;;;;;;79.40;32.48;;;;;;;1.60;98.65;100373.71;1740982;82;25421;-76
2024/03/15 03:18:03;;;;;;;83.47;35.03;;;;;;;1.59;98.49;100379.29;1741328;82;25630;-76
2024/03/15 03:20:32;;;;;;;74.53;32.63;;;;;;;1.57;99.20;100380.07;1741418;82;25447;-77
2024/03/15 03:22:57;;;;;;;76.55;33.53;;;;;;;1.55;99.09;100369.65;1741613;81;27324;-77
2024/03/15 03:25:24;;;;;;;74.92;32.73;;;;;;;1.54;98.85;100374.69;1741371;81;25454;-77
2024/03/15 03:27:50;;;;;;;79.72;33.85;;;;;;;1.54;99.22;100374.69;1741726;82;25542;-78
2024/03/15 03:30:17;;;;;;;75.60;33.30;;;;;;;1.55;99.52;100377.64;1741755;81;25636;-78
2024/03/15 03:32:43;;;;;;;76.02;33.83;;;;;;;1.56;99.57;100373.11;1742160;81;25389;-77
2024/03/15 03:35:10;;;;;;;76.92;31.80;;;;;;;1.56;99.92;100368.58;1741524;82;28109;-77
2024/03/15 03:37:37;;;;;;;78.97;32.28;;;;;;;1.58;100.00;100363.80;1741403;81;25659;-75
2024/03/15 03:40:13;;;;;;;83.92;33.40;;;;;;;1.59;100.00;100365.95;1741367;82;25417;-75
2024/03/15 03:42:36;;;;;;;82.57;34.53;;;;;;;1.62;100.00;100362.80;1741430;81;25636;-76
2024/03/15 03:45:15;;;;;;;83.03;33.53;;;;;;;1.65;100.00;100363.62;1741622;81;25368;-75
2024/03/15 03:47:31;;;;;;;81.75;34.73;;;;;;;1.67;100.00;100363.66;1741124;81;27892;-75
2024/03/15 03:49:57;;;;;;;75.35;32.65;;;;;;;1.68;100.00;100361.26;1742246;81;25389;-76
2024/03/15 03:52:24;;;;;;;86.02;33.63;;;;;;;1.72;100.00;100368.27;1741336;82;25583;-76
2024/03/15 03:54:50;;;;;;;82.27;34.88;;;;;;;1.74;100.00;100370.66;1741296;82;25456;-76
2024/03/15 03:57:23;;;;;;;83.92;34.40;;;;;;;1.75;100.00;100368.28;1741831;81;25482;-75
2024/03/15 03:59:49;;;;;;;89.70;32.55;;;;;;;1.77;100.00;100368.33;1741581;81;27387;-75
2024/03/15 04:02:15;;;;;;;88.50;32.40;;;;;;;1.78;100.00;100371.79;1740174;81;25663;-76
2024/03/15 04:04:42;;;;;;;89.77;34.18;;;;;;;1.78;100.00;100367.25;1741445;81;25425;-76
2024/03/15 04:07:09;;;;;;;96.15;34.92;;;;;;;1.79;100.00;100366.75;1740918;81;26282;-76
2024/03/15 04:09:35;;;;;;;88.15;33.33;;;;;;;1.79;100.00;100372.08;1741437;81;25632;-75
2024/03/15 04:12:02;;;;;;;95.22;34.13;;;;;;;1.80;100.00;100368.34;1741403;81;27344;-75
2024/03/15 04:14:28;;;;;;;78.55;30.97;;;;;;;1.82;100.00;100370.22;1741201;82;25459;-75
2024/03/15 04:16:55;;;;;;;126.40;34.78;;;;;;;1.83;100.00;100372.65;1741398;81;25460;-75
2024/03/15 04:19:24;;;;;;;119.57;32.60;;;;;;;1.84;100.00;100376.94;1741977;81;25692;-75
2024/03/15 04:21:51;;;;;;;91.02;29.75;;;;;;;1.81;100.00;100381.44;1741423;81;25599;-75
2024/03/15 04:24:18;;;;;;;91.92;31.30;;;;;;;1.80;100.00;100373.14;1743471;81;27412;-75
2024/03/15 04:26:44;;;;;;;101.35;33.23;;;;;;;1.80;100.00;100387.02;1746371;81;25559;-75
2024/03/15 04:29:10;;;;;;;94.58;31.50;;;;;;;1.81;100.00;100386.77;1746446;82;25447;-75
2024/03/15 04:31:39;;;;;;;92.05;31.75;;;;;;;1.82;100.00;100387.56;1746426;82;26163;-74
2024/03/15 04:34:04;;;;;;;103.45;30.25;;;;;;;1.82;100.00;100388.89;1746340;81;25395;-74
2024/03/15 04:36:31;;;;;;;80.67;29.80;;;;;;;1.80;100.00;100389.14;1746324;82;28026;-74
2024/03/15 04:38:58;;;;;;;85.10;29.40;;;;;;;1.80;100.00;100393.68;1746295;82;25638;-74
2024/03/15 04:41:25;;;;;;;99.15;29.42;;;;;;;1.78;100.00;100386.46;1739236;81;25456;-74
2024/03/15 04:43:51;;;;;;;90.22;29.72;;;;;;;1.81;100.00;100388.64;1738871;82;25637;-74
2024/03/15 04:46:20;;;;;;;71.35;29.32;;;;;;;1.81;100.00;100388.10;1738939;82;25388;-75
2024/03/15 04:48:47;;;;;;;122.28;27.95;;;;;;;1.81;100.00;100393.44;1739052;82;27932;-74
2024/03/15 04:51:13;;;;;;;91.80;27.77;;;;;;;1.82;100.00;100399.56;1738913;82;25702;-75
2024/03/15 04:53:40;;;;;;;122.65;30.17;;;;;;;1.80;100.00;100392.34;1739080;82;25553;-75
2024/03/15 04:56:07;;;;;;;100.78;27.17;;;;;;;1.80;100.00;100391.81;1739016;82;26187;-75
2024/03/15 04:58:33;;;;;;;110.95;28.25;;;;;;;1.81;100.00;100401.97;1739096;82;25546;-74
2024/03/15 05:01:04;;;;;;;93.60;29.18;;;;;;;1.81;100.00;100404.10;1739074;82;28021;-75
2024/03/15 05:03:28;;;;;;;123.25;29.10;;;;;;;1.81;100.00;100405.97;1739048;82;25608;-74
2024/03/15 05:05:54;;;;;;;129.93;28.60;;;;;;;1.81;100.00;100405.97;1739156;82;25613;-75
2024/03/15 05:08:21;;;;;;;89.92;27.32;;;;;;;1.82;100.00;100406.23;1739038;82;25514;-76
2024/03/15 05:10:48;;;;;;;91.47;27.93;;;;;;;1.83;100.00;100404.66;1739108;82;25606;-76
2024/03/15 05:13:14;;;;;;;83.92;27.58;;;;;;;1.84;100.00;100398.28;1739044;82;27394;-75
2024/03/15 05:15:40;;;;;;;81.78;27.45;;;;;;;1.87;100.00;100403.63;1739060;82;25518;-75
2024/03/15 05:18:07;;;;;;;96.28;29.35;;;;;;;1.90;100.00;100396.47;1739050;82;25446;-75
2024/03/15 05:20:33;;;;;;;90.85;29.00;;;;;;;1.93;100.00;100404.52;1739029;82;26297;-75
2024/03/15 05:23:00;;;;;;;77.12;29.20;;;;;;;1.96;100.00;100395.99;1739110;82;25581;-76
2024/03/15 05:25:26;;;;;;;73.20;27.10;;;;;;;1.98;100.00;100402.70;1744407;82;27317;-76
2024/03/15 05:27:52;;;;;;;94.75;29.40;;;;;;;2.02;100.00;100408.35;1746901;82;25687;-75
2024/03/15 05:30:18;;;;;;;73.52;29.60;;;;;;;2.06;100.00;100405.48;1747031;81;25401;-76
2024/03/15 05:32:44;;;;;;;79.53;29.90;;;;;;;2.10;100.00;100406.58;1746961;82;25624;-75
2024/03/15 05:35:11;;;;;;;69.65;27.15;;;;;;;2.12;100.00;100395.12;1747005;82;25372;-75
2024/03/15 05:37:37;;;;;;;69.77;28.57;;;;;;;2.16;100.00;100404.27;1746970;82;27347;-75
2024/03/15 05:40:07;;;;;;;74.77;28.17;;;;;;;2.17;100.00;100395.18;1746928;81;25401;-76
2024/03/15 05:42:33;;;;;;;72.30;27.15;;;;;;;2.22;100.00;100407.78;1747125;82;25547;-76
2024/03/15 05:44:59;;;;;;;65.28;26.85;;;;;;;2.29;100.00;100402.25;1746940;82;26332;-76
2024/03/15 05:47:25;;;;;;;67.42;26.33;;;;;;;2.32;100.00;100411.89;1747113;82;25611;-77
2024/03/15 05:49:52;;;;;;;68.87;26.70;;;;;;;2.34;100.00;100401.77;1747563;82;27314;-79
2024/03/15 05:52:18;;;;;;;66.70;28.40;;;;;;;2.41;100.00;100406.91;1746987;81;25415;-76
2024/03/15 05:54:44;;;;;;;67.37;27.82;;;;;;;2.46;100.00;100403.49;1746982;82;25407;-76
2024/03/15 05:57:10;;;;;;;70.92;29.12;;;;;;;2.48;100.00;100412.84;1748175;82;25656;-79
2024/03/15 05:59:38;;;;;;;71.53;27.15;;;;;;;2.53;100.00;100414.77;1748683;81;25452;-80
2024/03/15 06:02:05;;;;;;;71.92;28.95;;;;;;;2.58;100.00;100414.28;1747765;82;27322;-79
2024/03/15 06:04:34;;;;;;;71.30;29.77;;;;;;;2.64;100.00;100416.49;1747535;81;25515;-78
2024/03/15 06:07:02;;;;;;;74.03;28.95;;;;;;;2.66;100.00;100418.38;1748077;82;25574;-80
2024/03/15 06:09:31;;;;;;;68.47;28.65;;;;;;;2.71;100.00;100414.41;1748289;81;25626;-78
2024/03/15 06:11:57;;;;;;;75.83;30.05;;;;;;;2.78;100.00;100419.55;1747743;81;25344;-79
2024/03/15 06:14:25;;;;;;;70.05;30.55;;;;;;;2.85;100.00;100428.16;1747197;81;28011;-79
2024/03/15 06:16:54;;;;;;;64.50;28.85;;;;;;;2.89;100.00;100426.58;1747722;81;25742;-80
2024/03/15 06:19:22;;;;;;;70.05;30.57;;;;;;;2.95;100.00;100425.58;1748380;81;25633;-81
2024/03/15 06:21:49;;;;;;;78.60;31.45;;;;;;;3.02;100.00;100420.56;1747799;81;25800;-79
2024/03/15 06:24:19;;;;;;;81.08;32.63;;;;;;;3.09;100.00;100415.80;1747183;81;25668;-79
2024/03/15 06:26:52;;;;;;;84.67;32.67;;;;;;;3.16;100.00;100419.05;1748312;81;27310;-80
2024/03/15 06:29:20;;;;;;;66.30;30.27;;;;;;;3.26;100.00;100421.80;1748631;81;25702;-80
2024/03/15 06:31:49;;;;;;;64.42;29.55;;;;;;;3.35;100.00;100422.95;1747322;82;25384;-79
2024/03/15 06:34:22;;;;;;;73.07;30.57;;;;;;;3.44;100.00;100426.45;1748688;81;26302;-80
2024/03/15 06:36:44;;;;;;;67.58;29.32;;;;;;;3.49;100.00;100417.12;1748222;81;25423;-82
2024/03/15 06:40:00;;;;;;;64.03;28.57;;;;;;;3.57;100.00;100428.67;1748983;81;27506;-82
2024/03/15 06:41:55;;;;;;;64.95;27.93;;;;;;;3.71;100.00;100431.69;1747667;81;25604;-81
2024/03/15 06:44:25;;;;;;;62.23;28.02;;;;;;;3.78;100.00;100434.95;1748510;81;25662;-74
2024/03/15 06:47:15;;;;;;;59.85;25.62;;;;;;;3.84;100.00;100437.91;1747381;81;25626;-79
2024/03/15 06:49:54;;;;;;;61.00;27.45;;;;;;;3.97;100.00;100437.16;1747484;81;25631;-77
2024/03/15 06:52:35;;;;;;;62.30;27.52;;;;;;;4.14;100.00;100423.58;1747162;81;27332;-77
2024/03/15 06:55:04;;;;;;;54.03;26.33;;;;;;;4.30;100.00;100431.94;1747231;81;25535;-83
2024/03/15 06:57:32;;;;;;;60.30;26.87;;;;;;;4.47;100.00;100422.34;1748954;80;25266;-79
2024/03/15 07:00:09;;;;;;;50.73;24.18;;;;;;;4.63;100.00;100418.64;1747435;82;25624;-74
2024/03/15 07:02:32;;;;;;;58.75;28.25;;;;;;;4.81;100.00;100429.36;1747247;82;25543;-73
2024/03/15 07:04:58;;;;;;;43.20;22.13;;;;;;;4.92;100.00;100421.32;1718273;82;27983;-71
2024/03/15 07:07:26;;;;;;;47.15;23.15;;;;;;;4.94;99.86;100424.02;1747298;81;25625;-72
2024/03/15 07:09:53;;;;;;;40.03;20.70;;;;;;;5.04;100.00;100423.22;1747267;82;25505;-73
2024/03/15 07:12:19;;;;;;;38.55;19.57;;;;;;;5.19;99.67;100429.09;1747280;81;25611;-71
2024/03/15 07:14:49;;;;;;;36.83;18.80;;;;;;;5.31;98.96;100424.27;1747245;82;25458;-73
2024/03/15 07:17:21;;;;;;;35.30;18.05;;;;;;;5.52;98.42;100421.55;1747266;82;25821;-71
2024/03/15 07:19:49;;;;;;;38.00;18.02;;;;;;;5.71;97.96;100421.22;1747057;81;25634;-72
2024/03/15 07:22:16;;;;;;;38.08;20.02;;;;;;;5.84;97.42;100416.34;1746912;81;25651;-73
2024/03/15 07:24:46;;;;;;;32.95;17.60;;;;;;;6.06;96.22;100416.02;1746765;82;25638;-79
2024/03/15 07:27:13;;;;;;;28.80;16.45;;;;;;;6.25;96.46;100414.33;1746806;82;25405;-78
2024/03/15 07:29:43;;;;;;;33.40;17.57;;;;;;;6.43;94.23;100413.42;1747422;81;27388;-80
2024/03/15 07:32:14;;;;;;;31.62;16.80;;;;;;;6.68;95.25;100410.56;1747976;82;25397;-80
2024/03/15 07:34:42;;;;;;;27.95;14.80;;;;;;;6.94;93.15;100427.06;1748691;82;25563;-78
2024/03/15 07:37:11;;;;;;;27.15;15.50;;;;;;;7.08;89.00;100417.24;1748009;81;25571;-78
2024/03/15 07:39:42;;;;;;;26.00;14.80;;;;;;;7.14;88.76;100417.47;1748727;81;25215;-79
2024/03/15 07:42:10;;;;;;;25.85;14.60;;;;;;;7.23;87.78;100415.77;1748207;82;27355;-78
2024/03/15 07:44:38;;;;;;;26.82;14.13;;;;;;;7.29;86.85;100424.61;1747572;80;25459;-80
2024/03/15 07:47:06;;;;;;;24.00;13.95;;;;;;;7.32;86.43;100417.84;1746959;82;25155;-77
2024/03/15 07:49:34;;;;;;;30.52;18.35;;;;;;;7.34;86.25;100416.48;1746963;81;25616;-76
2024/03/15 07:52:00;;;;;;;26.00;14.15;;;;;;;7.53;84.78;100430.58;1747016;82;25399;-76
2024/03/15 07:54:27;;;;;;;25.00;14.15;;;;;;;7.64;83.53;100418.07;1746874;82;28089;-73
2024/03/15 07:56:53;;;;;;;23.57;13.45;;;;;;;7.87;82.43;100411.61;1746810;81;25569;-75
2024/03/15 07:59:20;;;;;;;27.15;14.58;;;;;;;8.14;82.44;100418.27;1746852;82;25621;-74
2024/03/15 08:01:47;;;;;;;25.00;13.55;;;;;;;8.53;81.78;100421.28;1746850;82;25617;-67
2024/03/15 08:04:14;;;;;;;22.07;13.53;;;;;;;8.79;80.64;100413.06;1746864;82;25456;-66
2024/03/15 08:06:41;;;;;;;24.60;14.13;;;;;;;9.08;79.00;100415.32;1746524;81;27713;-65
2024/03/15 08:09:11;;;;;;;25.25;13.45;;;;;;;9.28;79.69;100413.63;1745863;82;25779;-65
2024/03/15 08:11:36;;;;;;;22.50;12.63;;;;;;;9.28;77.20;100416.32;1746948;81;25565;-64
2024/03/15 08:14:05;;;;;;;22.27;13.50;;;;;;;9.29;76.01;100408.45;1746844;81;25672;-65
2024/03/15 08:16:35;;;;;;;24.70;14.43;;;;;;;9.33;76.83;100414.88;1746889;81;25585;-65
2024/03/15 08:19:10;;;;;;;22.13;12.58;;;;;;;9.18;75.43;100411.10;1747012;81;27331;-65
2024/03/15 08:21:38;;;;;;;21.68;13.32;;;;;;;9.01;75.46;100418.92;1746771;82;25206;-64
2024/03/15 08:24:09;;;;;;;24.70;12.45;;;;;;;8.69;75.46;100411.88;1746854;81;25620;-66
2024/03/15 08:26:37;;;;;;;20.08;12.10;;;;;;;8.50;76.04;100410.55;1746747;81;25680;-63
2024/03/15 08:29:04;;;;;;;23.00;13.05;;;;;;;8.50;76.61;100405.16;1746877;82;25206;-65
2024/03/15 08:31:30;;;;;;;20.15;12.68;;;;;;;8.46;75.69;100413.55;1746893;81;27307;-65
2024/03/15 08:34:01;;;;;;;32.53;19.73;;;;;;;8.34;75.56;100412.64;1746924;81;25592;-72
2024/03/15 08:36:25;;;;;;;47.45;30.80;;;;;;;8.33;76.12;100405.63;1747351;81;25588;-74
2024/03/15 08:38:51;;;;;;;22.00;13.75;;;;;;;8.55;77.26;100398.34;1746973;82;25823;-73
2024/03/15 08:41:17;;;;;;;24.72;12.73;;;;;;;8.82;76.87;100406.30;1747023;81;25637;-72
2024/03/15 08:43:44;;;;;;;19.50;12.80;;;;;;;9.21;75.96;100398.89;1747100;82;28335;-72
2024/03/15 08:46:10;;;;;;;18.37;12.50;;;;;;;9.16;74.93;100402.50;1746839;81;25413;-72
2024/03/15 08:48:36;;;;;;;21.62;12.70;;;;;;;9.27;75.63;100400.42;1746982;81;25571;-73
2024/03/15 08:51:03;;;;;;;17.95;12.07;;;;;;;9.55;75.50;100406.64;1747151;81;25470;-73
2024/03/15 08:53:32;;;;;;;19.65;12.35;;;;;;;9.54;74.08;100399.66;1747883;82;25414;-78
2024/03/15 08:55:58;;;;;;;21.80;12.33;;;;;;;9.72;72.61;100417.67;1750439;82;27308;-79
2024/03/15 08:58:28;;;;;;;19.12;11.25;;;;;;;9.86;74.05;100400.11;1750044;81;25177;-79
2024/03/15 09:00:57;;;;;;;20.95;12.05;;;;;;;10.09;71.66;100417.18;1749997;81;25155;-79
2024/03/15 09:03:25;;;;;;;18.85;11.70;;;;;;;10.13;71.12;100401.72;1749816;81;25617;-79
2024/03/15 09:05:58;;;;;;;17.80;11.33;;;;;;;10.22;70.46;100404.76;1749832;81;25299;-78
2024/03/15 09:12:02;;;;;;;17.92;10.90;;;;;;;10.97;69.64;100389.55;1724645;81;25701;-79
2024/03/15 09:14:35;;;;;;;18.67;11.85;;;;;;;11.96;71.50;100398.28;1676445;83;25715;-79
2024/03/15 09:16:59;;;;;;;17.92;10.72;;;;;;;12.65;70.73;100389.16;1680531;83;25638;-80
2024/03/15 09:19:43;;;;;;;18.80;10.88;;;;;;;13.61;70.63;100387.03;1682346;84;25491;-80
2024/03/15 09:22:13;;;;;;;17.27;11.57;;;;;;;14.43;69.56;100397.33;1590225;89;27424;-79
2024/03/15 09:24:40;;;;;;;19.32;11.12;;;;;;;15.04;64.75;100388.64;1588583;90;25274;-80
2024/03/15 09:27:08;;;;;;;14.15;9.95;;;;;;;15.28;62.18;100396.86;1585154;89;25787;-79
2024/03/15 09:29:35;;;;;;;16.45;10.90;;;;;;;15.17;58.72;100394.36;1584409;90;26301;-77
2024/03/15 09:32:02;;;;;;;18.90;11.83;;;;;;;14.94;61.75;100393.94;1584270;90;25664;-76
2024/03/15 09:34:29;;;;;;;15.63;11.12;;;;;;;14.98;61.90;100390.77;1584160;90;28041;-77
2024/03/15 09:37:02;;;;;;;16.95;11.50;;;;;;;15.26;60.40;100398.34;1584292;90;25723;-77
2024/03/15 09:39:29;;;;;;;16.85;10.82;;;;;;;15.05;59.89;100392.40;1584350;89;25707;-77
2024/03/15 09:41:55;;;;;;;16.65;11.43;;;;;;;15.28;58.86;100394.13;1584529;90;26304;-78
2024/03/15 09:44:23;;;;;;;17.03;10.67;;;;;;;15.38;60.89;100392.91;1585202;90;25789;-79
2024/03/15 09:46:51;;;;;;;17.07;10.88;;;;;;;15.80;56.75;100399.55;1606555;87;27558;-79
2024/03/15 09:49:22;;;;;;;16.87;11.38;;;;;;;15.62;56.03;100387.25;1616918;87;25690;-78
2024/03/15 09:51:53;;;;;;;19.80;11.83;;;;;;;15.45;54.09;100381.45;1610099;87;25911;-77
2024/03/15 09:54:19;;;;;;;17.80;11.60;;;;;;;15.23;54.78;100382.66;1631917;87;25622;-77
2024/03/15 09:56:50;;;;;;;16.15;10.85;;;;;;;15.27;57.08;100382.20;1631992;87;25685;-77
2024/03/15 09:59:22;;;;;;;16.82;11.15;;;;;;;15.69;54.21;100386.11;1631849;87;28056;-76
2024/03/15 10:01:50;;;;;;;97.78;74.58;;;;;;;15.69;56.24;100381.44;1629346;87;25524;-69
2024/03/15 10:04:18;;;;;;;18.60;12.45;;;;;;;15.60;54.96;100379.98;1631931;87;25740;-73
2024/03/15 10:06:45;;;;;;;;;;;;;;;15.18;53.84;100377.44;1704574;83;25673;-68
2024/03/15 10:09:12;;;;;;;18.20;12.60;;;;;;;15.03;55.13;100370.13;1716947;83;25618;-68
2024/03/15 10:11:39;;;;;;;16.85;11.43;;;;;;;14.91;54.74;100368.19;1716829;83;27646;-68
2024/03/15 10:14:09;;;;;;;18.23;11.78;;;;;;;14.80;55.77;100368.38;1715162;83;25610;-68
2024/03/15 10:16:38;;;;;;;19.37;11.78;;;;;;;14.77;55.21;100367.67;1714722;83;25642;-66
2024/03/15 10:19:11;;;;;;;17.57;11.20;;;;;;;14.68;55.53;100375.14;1714593;83;26354;-65
2024/03/15 10:21:38;;;;;;;17.77;11.95;;;;;;;14.75;55.34;100373.45;1714655;83;25616;-66
2024/03/15 10:24:07;;;;;;;17.90;11.57;;;;;;;14.55;54.96;100372.89;1714475;83;28778;-66
2024/03/15 10:26:35;;;;;;;15.38;11.45;;;;;;;14.69;53.96;100372.09;1726930;82;25727;-65
2024/03/15 10:29:07;;;;;;;17.57;11.43;;;;;;;14.99;55.08;100368.43;1739191;82;25487;-66
2024/03/15 10:31:31;;;;;;;16.85;11.95;;;;;;;15.50;56.39;100371.10;1739059;82;25713;-65
2024/03/15 10:34:00;;;;;;;18.42;11.95;;;;;;;16.05;55.17;100375.75;1739010;82;25574;-66
2024/03/15 10:36:28;;;;;;;16.87;11.63;;;;;;;16.18;53.11;100374.38;1738937;82;28120;-66
2024/03/15 10:38:55;;;;;;;15.80;11.15;;;;;;;16.31;51.15;100372.41;1738918;82;25927;-65
2024/03/15 10:41:24;;;;;;;16.27;11.00;;;;;;;16.31;52.63;100371.85;1739024;82;25409;-66
2024/03/15 10:43:57;;;;;;;15.55;11.15;;;;;;;16.91;52.74;100369.81;1738951;82;25605;-66
2024/03/15 10:46:23;;;;;;;16.55;11.08;;;;;;;17.55;53.88;100369.25;1739024;82;25416;-66
2024/03/15 10:48:53;;;;;;;15.05;11.45;;;;;;;17.95;47.17;100360.64;1739037;82;27371;-66
2024/03/15 10:51:25;;;;;;;16.55;11.40;;;;;;;17.70;48.43;100367.07;1738924;82;26102;-65
2024/03/15 10:53:56;;;;;;;17.15;12.20;;;;;;;17.55;48.23;100350.92;1739137;82;25550;-65
2024/03/15 10:56:24;;;;;;;17.85;12.68;;;;;;;17.80;48.27;100363.00;1738947;82;25536;-66
2024/03/15 10:58:54;;;;;;;16.75;12.37;;;;;;;17.68;45.95;100361.75;1739017;82;25459;-67
2024/03/15 11:01:24;;;;;;;15.65;11.28;;;;;;;17.33;45.62;100355.09;1738993;82;27453;-65
2024/03/15 11:03:53;;;;;;;18.80;12.70;;;;;;;17.00;47.80;100348.58;1738890;82;25557;-67
2024/03/15 11:06:26;;;;;;;15.95;11.05;;;;;;;17.12;48.21;100346.34;1738947;82;25487;-65
2024/03/15 11:08:54;;;;;;;16.30;11.73;;;;;;;17.08;47.59;100345.47;1715515;82;25976;-66
2024/03/15 11:11:22;;;;;;;20.45;13.72;;;;;;;17.10;48.69;100339.08;1739098;82;25594;-65
2024/03/15 11:13:50;;;;;;;21.30;13.45;;;;;;;17.14;47.50;100333.11;1738950;82;27251;-65
2024/03/15 11:16:23;;;;;;;18.65;12.37;;;;;;;17.09;45.63;100342.36;1738995;82;25464;-64
2024/03/15 11:19:05;;;;;;;15.83;11.57;;;;;;;16.62;46.01;100341.70;1739085;82;25541;-66
2024/03/15 11:21:33;;;;;;;16.75;12.47;;;;;;;16.41;47.51;100330.42;1738977;82;25948;-66
2024/03/15 11:24:22;;;;;;;17.30;11.43;;;;;;;16.32;47.34;100328.97;1740072;82;25392;-79